createdAt,value
2018-05-07T00:00:51.968Z,19.52
2018-05-07T00:03:19.412Z,19.52
2018-05-07T00:05:46.853Z,19.57
2018-05-07T00:08:14.249Z,19.54
2018-05-07T00:10:41.992Z,19.48
2018-05-07T00:13:09.427Z,19.43
2018-05-07T00:15:36.958Z,19.45
2018-05-07T00:18:05.221Z,19.43
2018-05-07T00:20:32.712Z,19.46
2018-05-07T00:23:00.175Z,19.47
2018-05-07T00:25:28.234Z,19.45
2018-05-07T00:27:55.639Z,19.34
2018-05-07T00:30:23.043Z,19.28
2018-05-07T00:32:50.492Z,19.27
2018-05-07T00:35:17.895Z,19.23
2018-05-07T00:37:45.372Z,19.20
2018-05-07T00:40:12.818Z,19.23
2018-05-07T00:42:40.288Z,19.22
2018-05-07T00:45:07.776Z,19.15
2018-05-07T00:47:35.222Z,19.15
2018-05-07T00:50:02.610Z,19.10
2018-05-07T00:52:30.074Z,19.09
2018-05-07T00:55:09.211Z,19.07
2018-05-07T00:57:36.715Z,18.98
2018-05-07T01:00:04.240Z,18.89
2018-05-07T01:02:31.713Z,18.86
2018-05-07T01:04:59.155Z,18.88
2018-05-07T01:07:26.582Z,18.90
2018-05-07T01:09:54.076Z,18.95
2018-05-07T01:12:21.522Z,18.94
2018-05-07T01:14:48.953Z,18.88
2018-05-07T01:17:16.388Z,18.80
2018-05-07T01:19:43.841Z,18.79
2018-05-07T01:22:11.278Z,18.80
2018-05-07T01:24:38.683Z,18.79
2018-05-07T01:27:06.645Z,18.75
2018-05-07T01:29:34.043Z,18.68
2018-05-07T01:32:01.450Z,18.58
2018-05-07T01:34:28.881Z,18.55
2018-05-07T01:36:56.324Z,18.53
2018-05-07T01:39:23.826Z,18.47
2018-05-07T01:41:51.269Z,18.40
2018-05-07T01:44:18.714Z,18.43
2018-05-07T01:46:46.190Z,18.43
2018-05-07T01:49:13.726Z,18.45
2018-05-07T01:51:41.290Z,18.41
2018-05-07T01:54:08.935Z,18.36
2018-05-07T01:56:36.337Z,18.30
2018-05-07T01:59:03.774Z,18.28
2018-05-07T02:01:31.195Z,18.27
2018-05-07T02:03:58.668Z,18.28
2018-05-07T02:06:26.063Z,18.31
2018-05-07T02:08:53.488Z,18.33
2018-05-07T02:11:20.929Z,18.33
2018-05-07T02:13:48.399Z,18.30
2018-05-07T02:16:16.339Z,18.33
2018-05-07T02:18:43.783Z,18.32
2018-05-07T02:21:12.084Z,18.24
2018-05-07T02:23:40.087Z,18.11
2018-05-07T02:26:07.740Z,18.08
2018-05-07T02:28:35.142Z,18.05
2018-05-07T02:31:02.767Z,18.02
2018-05-07T02:33:30.208Z,17.96
2018-05-07T02:35:57.623Z,17.93
2018-05-07T02:38:25.072Z,17.88
2018-05-07T02:40:52.689Z,17.77
2018-05-07T02:43:20.166Z,17.74
2018-05-07T02:45:47.803Z,17.75
2018-05-07T02:48:15.255Z,17.77
2018-05-07T02:50:42.725Z,17.69
2018-05-07T02:53:10.122Z,17.63
2018-05-07T02:55:37.571Z,17.65
2018-05-07T02:58:05.018Z,17.68
2018-05-07T03:00:32.449Z,17.65
2018-05-07T03:02:59.885Z,17.63
2018-05-07T03:05:27.350Z,17.61
2018-05-07T03:07:54.831Z,17.61
2018-05-07T03:10:22.330Z,17.50
2018-05-07T03:12:49.793Z,17.37
2018-05-07T03:15:17.258Z,17.41
2018-05-07T03:17:44.778Z,17.43
2018-05-07T03:20:12.240Z,17.33
2018-05-07T03:22:39.680Z,17.39
2018-05-07T03:25:07.383Z,17.37
2018-05-07T03:27:34.783Z,17.39
2018-05-07T03:30:02.359Z,17.35
2018-05-07T03:32:29.800Z,17.36
2018-05-07T03:34:57.212Z,17.35
2018-05-07T03:37:24.622Z,17.33
2018-05-07T03:39:52.905Z,17.38
2018-05-07T03:42:20.381Z,17.40
2018-05-07T03:44:47.813Z,17.43
2018-05-07T03:47:15.991Z,17.38
2018-05-07T03:49:43.474Z,17.38
2018-05-07T03:52:10.982Z,17.40
2018-05-07T03:54:38.390Z,17.38
2018-05-07T03:57:05.856Z,17.31
2018-05-07T03:59:33.300Z,17.26
2018-05-07T04:02:00.702Z,17.22
2018-05-07T04:04:28.114Z,17.22
2018-05-07T04:06:55.636Z,17.16
2018-05-07T04:09:23.156Z,17.18
2018-05-07T04:11:50.640Z,17.18
2018-05-07T04:14:18.076Z,17.18
2018-05-07T04:16:57.413Z,17.15
2018-05-07T04:19:36.719Z,17.10
2018-05-07T04:22:15.789Z,17.02
2018-05-07T04:24:43.267Z,17.01
2018-05-07T04:27:10.757Z,16.98
2018-05-07T04:29:38.215Z,17.01
2018-05-07T04:32:05.731Z,17.06
2018-05-07T04:34:33.163Z,17.09
2018-05-07T04:37:00.597Z,17.05
2018-05-07T04:39:28.363Z,17.01
2018-05-07T04:41:55.812Z,16.88
2018-05-07T04:44:23.228Z,16.75
2018-05-07T04:46:50.666Z,16.66
2018-05-07T04:49:18.085Z,16.69
2018-05-07T04:51:45.536Z,16.73
2018-05-07T04:54:12.969Z,16.87
2018-05-07T04:56:40.441Z,16.97
2018-05-07T04:59:07.942Z,17.06
2018-05-07T05:01:35.392Z,17.18
2018-05-07T05:04:02.802Z,17.30
2018-05-07T05:06:30.239Z,17.35
2018-05-07T05:08:57.647Z,17.45
2018-05-07T05:11:25.055Z,17.64
2018-05-07T05:13:52.473Z,17.78
2018-05-07T05:16:19.880Z,17.83
2018-05-07T05:18:47.324Z,17.96
2018-05-07T05:21:14.912Z,18.05
2018-05-07T05:23:42.178Z,18.18
2018-05-07T05:26:09.614Z,18.31
2018-05-07T05:28:37.084Z,18.39
2018-05-07T05:31:04.612Z,18.43
2018-05-07T05:33:32.227Z,18.55
2018-05-07T05:35:59.764Z,18.60
2018-05-07T05:38:27.261Z,18.62
2018-05-07T05:40:54.942Z,18.70
2018-05-07T05:43:22.452Z,18.77
2018-05-07T05:45:49.936Z,18.88
2018-05-07T05:48:17.388Z,18.97
2018-05-07T05:50:44.993Z,19.10
2018-05-07T05:53:12.468Z,19.19
2018-05-07T05:55:39.954Z,19.23
2018-05-07T05:58:07.438Z,19.29
2018-05-07T06:00:34.850Z,19.37
2018-05-07T06:03:02.309Z,19.47
2018-05-07T06:05:29.800Z,19.49
2018-05-07T06:07:57.251Z,19.56
2018-05-07T06:10:24.724Z,19.63
2018-05-07T06:12:52.172Z,19.66
2018-05-07T06:15:19.604Z,19.73
2018-05-07T06:17:47.077Z,19.79
2018-05-07T06:20:14.540Z,19.92
2018-05-07T06:22:41.943Z,19.96
2018-05-07T06:25:09.710Z,20.12
2018-05-07T06:27:37.381Z,20.24
2018-05-07T06:30:04.847Z,20.51
2018-05-07T06:32:32.505Z,20.57
2018-05-07T06:34:59.947Z,20.72
2018-05-07T06:37:27.391Z,20.87
2018-05-07T06:39:54.875Z,21.10
2018-05-07T06:42:22.310Z,21.35
2018-05-07T06:44:49.768Z,21.37
2018-05-07T06:47:17.191Z,21.49
2018-05-07T06:49:44.642Z,21.85
2018-05-07T06:52:12.116Z,21.93
2018-05-07T06:54:39.603Z,21.91
2018-05-07T06:57:07.187Z,22.36
2018-05-07T06:59:34.621Z,22.66
2018-05-07T07:02:02.172Z,23.00
2018-05-07T07:04:29.587Z,23.08
2018-05-07T07:06:56.987Z,23.27
2018-05-07T07:09:24.507Z,23.64
2018-05-07T07:11:51.917Z,23.80
2018-05-07T07:14:19.401Z,24.12
2018-05-07T07:16:46.840Z,24.38
2018-05-07T07:19:14.482Z,24.22
2018-05-07T07:21:42.184Z,24.41
2018-05-07T07:24:09.587Z,24.36
2018-05-07T07:26:37.050Z,24.49
2018-05-07T07:29:04.530Z,24.77
2018-05-07T07:31:31.972Z,24.73
2018-05-07T07:33:59.487Z,24.60
2018-05-07T07:36:26.916Z,24.12
2018-05-07T07:38:54.340Z,24.14
2018-05-07T07:41:22.360Z,24.46
2018-05-07T07:43:49.823Z,25.10
2018-05-07T07:46:17.267Z,25.26
2018-05-07T07:48:44.657Z,25.25
2018-05-07T07:51:12.427Z,25.37
2018-05-07T07:53:39.894Z,24.54
2018-05-07T07:56:07.352Z,24.15
2018-05-07T07:58:35.173Z,24.08
2018-05-07T08:01:02.918Z,24.51
2018-05-07T08:03:30.323Z,25.11
2018-05-07T08:05:57.760Z,25.05
2018-05-07T08:08:25.174Z,24.93
2018-05-07T08:10:52.663Z,24.77
2018-05-07T08:13:20.095Z,25.12
2018-05-07T08:15:47.499Z,25.54
2018-05-07T08:18:14.949Z,25.54
2018-05-07T08:20:42.377Z,26.13
2018-05-07T08:23:09.792Z,26.52
2018-05-07T08:25:37.277Z,26.66
2018-05-07T08:28:04.767Z,26.45
2018-05-07T08:30:32.262Z,26.43
2018-05-07T08:32:59.835Z,25.94
2018-05-07T08:35:27.314Z,25.39
2018-05-07T08:37:54.717Z,25.50
2018-05-07T08:40:22.139Z,25.97
2018-05-07T08:42:50.202Z,26.04
2018-05-07T08:45:17.667Z,25.75
2018-05-07T08:47:45.088Z,25.77
2018-05-07T08:50:12.493Z,25.27
2018-05-07T08:52:39.912Z,25.19
2018-05-07T08:55:07.349Z,24.89
2018-05-07T08:57:35.126Z,24.88
2018-05-07T09:00:02.600Z,24.93
2018-05-07T09:02:30.037Z,24.71
2018-05-07T09:04:57.491Z,24.72
2018-05-07T09:07:24.958Z,24.59
2018-05-07T09:09:52.436Z,24.58
2018-05-07T09:12:19.919Z,24.72
2018-05-07T09:14:47.366Z,24.47
2018-05-07T09:17:14.798Z,24.62
2018-05-07T09:19:42.243Z,24.92
2018-05-07T09:22:09.657Z,24.93
2018-05-07T09:24:37.165Z,25.11
2018-05-07T09:27:04.616Z,25.04
2018-05-07T09:29:32.061Z,25.05
2018-05-07T09:31:59.462Z,25.44
2018-05-07T09:34:27.169Z,25.49
2018-05-07T09:36:54.641Z,25.35
2018-05-07T09:39:22.072Z,25.27
2018-05-07T09:41:49.564Z,25.77
2018-05-07T09:44:17.007Z,25.74
2018-05-07T09:46:44.627Z,25.70
2018-05-07T09:49:12.103Z,25.60
2018-05-07T09:51:39.625Z,25.96
2018-05-07T09:54:07.094Z,25.85
2018-05-07T09:56:46.328Z,25.50
2018-05-07T09:59:13.744Z,25.68
2018-05-07T10:01:41.175Z,25.77
2018-05-07T10:04:08.576Z,25.77
2018-05-07T10:06:36.040Z,25.88
2018-05-07T10:09:03.507Z,25.82
2018-05-07T10:11:30.949Z,25.69
2018-05-07T10:13:58.360Z,25.76
2018-05-07T10:16:25.863Z,25.91
2018-05-07T10:18:53.321Z,26.38
2018-05-07T10:21:20.753Z,26.66
2018-05-07T10:23:48.187Z,26.95
2018-05-07T10:26:15.614Z,26.97
2018-05-07T10:28:43.104Z,26.89
2018-05-07T10:31:10.573Z,26.87
2018-05-07T10:33:37.969Z,26.97
2018-05-07T10:36:05.414Z,26.75
2018-05-07T10:38:32.827Z,26.64
2018-05-07T10:41:00.284Z,26.57
2018-05-07T10:43:27.720Z,26.64
2018-05-07T10:45:55.209Z,26.75
2018-05-07T10:48:22.690Z,26.91
2018-05-07T10:50:50.162Z,26.63
2018-05-07T10:53:17.556Z,26.50
2018-05-07T10:55:44.995Z,26.44
2018-05-07T10:58:12.399Z,26.70
2018-05-07T11:00:39.897Z,27.09
2018-05-07T11:03:09.112Z,26.96
2018-05-07T11:05:36.573Z,26.74
2018-05-07T11:08:04.082Z,26.82
2018-05-07T11:10:31.514Z,26.46
2018-05-07T11:12:58.912Z,26.41
2018-05-07T11:15:26.424Z,26.35
2018-05-07T11:17:53.838Z,26.69
2018-05-07T11:20:21.281Z,27.26
2018-05-07T11:22:48.714Z,27.47
2018-05-07T11:25:16.195Z,27.39
2018-05-07T11:27:43.587Z,27.51
2018-05-07T11:30:11.065Z,27.75
2018-05-07T11:32:38.549Z,28.00
2018-05-07T11:35:06.029Z,27.89
2018-05-07T11:37:33.453Z,27.86
2018-05-07T11:40:00.898Z,27.80
2018-05-07T11:42:28.727Z,28.19
2018-05-07T11:44:56.135Z,28.55
2018-05-07T11:47:23.953Z,28.57
2018-05-07T11:49:51.411Z,28.50
2018-05-07T11:52:18.995Z,28.42
2018-05-07T11:54:46.495Z,28.47
2018-05-07T11:57:13.929Z,28.39
2018-05-07T11:59:41.332Z,28.23
2018-05-07T12:02:08.820Z,28.22
2018-05-07T12:04:36.230Z,28.20
2018-05-07T12:07:03.677Z,27.93
2018-05-07T12:09:31.115Z,27.75
2018-05-07T12:11:58.528Z,27.60
2018-05-07T12:14:25.977Z,27.66
2018-05-07T12:16:53.439Z,27.63
2018-05-07T12:19:21.428Z,27.64
2018-05-07T12:21:48.980Z,27.73
2018-05-07T12:24:16.453Z,27.58
2018-05-07T12:26:43.849Z,27.80
2018-05-07T12:29:11.259Z,27.85
2018-05-07T12:31:38.839Z,27.89
2018-05-07T12:34:06.143Z,27.97
2018-05-07T12:36:36.479Z,28.08
2018-05-07T12:39:04.040Z,28.26
2018-05-07T12:41:31.457Z,28.51
2018-05-07T12:43:58.895Z,28.73
2018-05-07T12:46:26.302Z,28.49
2018-05-07T12:48:53.751Z,28.32
2018-05-07T12:51:21.222Z,28.31
2018-05-07T12:53:48.796Z,28.64
2018-05-07T12:56:16.229Z,28.54
2018-05-07T12:58:43.672Z,28.42
2018-05-07T13:01:11.122Z,28.41
2018-05-07T13:03:38.692Z,28.53
2018-05-07T13:06:06.089Z,28.69
2018-05-07T13:08:33.560Z,28.84
2018-05-07T13:11:00.974Z,28.81
2018-05-07T13:13:28.431Z,29.20
2018-05-07T13:15:56.831Z,29.26
2018-05-07T13:18:24.308Z,29.12
2018-05-07T13:20:51.785Z,29.24
2018-05-07T13:23:19.262Z,29.39
2018-05-07T13:25:46.700Z,29.47
2018-05-07T13:28:14.133Z,29.16
2018-05-07T13:30:41.672Z,29.02
2018-05-07T13:33:09.098Z,29.08
2018-05-07T13:35:36.595Z,29.02
2018-05-07T13:38:04.195Z,28.96
2018-05-07T13:40:31.697Z,28.94
2018-05-07T13:42:59.163Z,28.93
2018-05-07T13:45:26.619Z,29.14
2018-05-07T13:47:54.097Z,29.23
2018-05-07T13:50:21.576Z,29.63
2018-05-07T13:52:49.287Z,29.76
2018-05-07T13:55:16.828Z,30.01
2018-05-07T13:57:44.335Z,29.99
2018-05-07T14:00:11.818Z,29.69
2018-05-07T14:02:39.341Z,29.66
2018-05-07T14:05:06.952Z,29.94
2018-05-07T14:07:34.416Z,30.08
2018-05-07T14:10:01.863Z,30.22
2018-05-07T14:12:29.421Z,30.37
2018-05-07T14:14:57.251Z,30.23
2018-05-07T14:17:24.690Z,29.68
2018-05-07T14:19:52.209Z,29.27
2018-05-07T14:22:19.614Z,29.41
2018-05-07T14:24:47.130Z,29.75
2018-05-07T14:27:14.616Z,29.60
2018-05-07T14:29:42.047Z,29.37
2018-05-07T14:32:09.540Z,29.46
2018-05-07T14:34:37.080Z,29.58
2018-05-07T14:37:04.565Z,29.56
2018-05-07T14:39:32.418Z,29.61
2018-05-07T14:41:59.859Z,29.63
2018-05-07T14:44:27.345Z,29.45
2018-05-07T14:46:54.830Z,29.20
2018-05-07T14:49:22.309Z,29.13
2018-05-07T14:51:49.794Z,29.07
2018-05-07T14:54:17.302Z,28.87
2018-05-07T14:56:44.762Z,28.89
2018-05-07T14:59:12.269Z,28.99
2018-05-07T15:01:39.664Z,28.86
2018-05-07T15:04:07.895Z,28.50
2018-05-07T15:06:35.341Z,28.18
2018-05-07T15:09:02.764Z,28.00
2018-05-07T15:11:30.198Z,27.73
2018-05-07T15:14:09.562Z,27.67
2018-05-07T15:16:36.985Z,28.04
2018-05-07T15:19:04.451Z,28.34
2018-05-07T15:21:31.928Z,28.67
2018-05-07T15:23:59.399Z,28.63
2018-05-07T15:26:26.823Z,28.46
2018-05-07T15:28:54.276Z,28.18
2018-05-07T15:31:21.711Z,28.06
2018-05-07T15:33:49.178Z,27.97
2018-05-07T15:36:16.663Z,28.01
2018-05-07T15:38:44.221Z,27.93
2018-05-07T15:41:11.762Z,27.85
2018-05-07T15:43:40.060Z,28.30
2018-05-07T15:46:07.471Z,28.44
2018-05-07T15:48:34.960Z,28.67
2018-05-07T15:51:02.384Z,28.83
2018-05-07T15:53:29.795Z,28.67
2018-05-07T15:55:57.400Z,28.44
2018-05-07T15:58:24.847Z,28.35
2018-05-07T16:00:52.295Z,28.12
2018-05-07T16:03:19.893Z,28.13
2018-05-07T16:05:47.418Z,27.81
2018-05-07T16:08:14.823Z,27.53
2018-05-07T16:10:42.433Z,27.30
2018-05-07T16:13:09.859Z,27.21
2018-05-07T16:15:37.483Z,27.01
2018-05-07T16:18:04.986Z,26.96
2018-05-07T16:20:32.464Z,26.91
2018-05-07T16:23:00.081Z,26.84
2018-05-07T16:25:27.584Z,26.75
2018-05-07T16:27:55.177Z,26.77
2018-05-07T16:30:22.658Z,26.76
2018-05-07T16:32:50.181Z,26.75
2018-05-07T16:35:18.427Z,26.68
2018-05-07T16:37:45.390Z,26.56
2018-05-07T16:40:12.930Z,26.44
2018-05-07T16:42:40.498Z,26.39
2018-05-07T16:45:07.931Z,26.43
2018-05-07T16:47:35.494Z,26.40
2018-05-07T16:50:02.949Z,26.45
2018-05-07T16:52:30.515Z,26.43
2018-05-07T16:54:57.915Z,26.47
2018-05-07T16:57:25.391Z,26.43
2018-05-07T16:59:53.136Z,26.47
2018-05-07T17:02:20.572Z,26.54
2018-05-07T17:04:48.102Z,26.60
2018-05-07T17:07:15.551Z,26.52
2018-05-07T17:09:44.000Z,26.48
2018-05-07T17:12:11.458Z,26.43
2018-05-07T17:14:39.186Z,26.49
2018-05-07T17:17:06.728Z,26.46
2018-05-07T17:19:34.131Z,26.31
2018-05-07T17:22:01.556Z,26.10
2018-05-07T17:24:29.089Z,25.89
2018-05-07T17:26:56.633Z,25.63
2018-05-07T17:29:24.110Z,25.47
2018-05-07T17:31:51.569Z,25.31
2018-05-07T17:34:19.054Z,25.07
2018-05-07T17:36:46.525Z,25.02
2018-05-07T17:39:14.007Z,24.78
2018-05-07T17:41:41.451Z,24.60
2018-05-07T17:44:20.770Z,24.42
2018-05-07T17:46:59.975Z,24.07
2018-05-07T17:49:27.591Z,23.89
2018-05-07T17:51:54.996Z,23.67
2018-05-07T17:54:22.527Z,23.70
2018-05-07T17:56:50.091Z,23.62
2018-05-07T17:59:17.601Z,23.51
2018-05-07T18:01:45.022Z,23.46
2018-05-07T18:04:12.613Z,23.52
2018-05-07T18:06:40.092Z,23.62
2018-05-07T18:09:07.581Z,23.57
2018-05-07T18:11:35.285Z,23.48
2018-05-07T18:14:02.809Z,23.40
2018-05-07T18:16:30.603Z,23.32
2018-05-07T18:18:58.051Z,23.25
2018-05-07T18:21:25.627Z,23.15
2018-05-07T18:23:53.121Z,23.03
2018-05-07T18:26:20.614Z,23.03
2018-05-07T18:28:48.059Z,23.08
2018-05-07T18:31:15.639Z,23.06
2018-05-07T18:33:43.108Z,23.01
2018-05-07T18:36:11.026Z,22.96
2018-05-07T18:38:38.395Z,22.91
2018-05-07T18:41:05.814Z,22.80
2018-05-07T18:43:33.271Z,22.59
2018-05-07T18:46:00.948Z,22.42
2018-05-07T18:48:28.594Z,22.23
2018-05-07T18:50:56.050Z,22.04
2018-05-07T18:53:23.521Z,21.95
2018-05-07T18:55:50.964Z,21.93
2018-05-07T18:58:18.412Z,21.99
2018-05-07T19:00:45.913Z,21.99
2018-05-07T19:03:13.412Z,21.87
2018-05-07T19:05:40.914Z,21.77
2018-05-07T19:08:08.328Z,21.67
2018-05-07T19:10:36.229Z,21.56
2018-05-07T19:13:03.795Z,21.49
2018-05-07T19:15:31.218Z,21.41
2018-05-07T19:17:58.779Z,21.36
2018-05-07T19:20:26.488Z,21.27
2018-05-07T19:22:53.945Z,21.12
2018-05-07T19:25:21.778Z,20.98
2018-05-07T19:27:49.169Z,20.92
2018-05-07T19:30:16.701Z,20.74
2018-05-07T19:32:44.127Z,20.66
2018-05-07T19:35:11.629Z,20.62
2018-05-07T19:37:39.476Z,20.56
2018-05-07T19:40:06.998Z,20.51
2018-05-07T19:42:34.444Z,20.58
2018-05-07T19:45:01.882Z,20.59
2018-05-07T19:47:29.330Z,20.57
2018-05-07T19:49:57.659Z,20.65
2018-05-07T19:52:25.090Z,20.64
2018-05-07T19:54:52.592Z,20.65
2018-05-07T19:57:20.100Z,20.53
2018-05-07T19:59:47.579Z,20.54
2018-05-07T20:02:14.992Z,20.61
2018-05-07T20:04:42.520Z,20.54
2018-05-07T20:07:09.973Z,20.51
2018-05-07T20:09:37.437Z,20.53
2018-05-07T20:12:04.942Z,20.50
2018-05-07T20:14:32.427Z,20.42
2018-05-07T20:16:59.948Z,20.38
2018-05-07T20:19:27.447Z,20.41
2018-05-07T20:21:55.107Z,20.36
2018-05-07T20:24:22.593Z,20.38
2018-05-07T20:26:50.050Z,20.42
2018-05-07T20:29:17.511Z,20.17
2018-05-07T20:31:44.994Z,20.05
2018-05-07T20:34:12.455Z,19.89
2018-05-07T20:36:39.879Z,19.88
2018-05-07T20:39:07.280Z,19.83
2018-05-07T20:41:34.702Z,19.85
2018-05-07T20:44:02.296Z,19.87
2018-05-07T20:46:29.762Z,19.93
2018-05-07T20:48:57.254Z,19.99
2018-05-07T20:51:24.747Z,19.92
2018-05-07T20:53:52.225Z,19.91
2018-05-07T20:56:19.971Z,19.89
2018-05-07T20:58:47.438Z,19.88
2018-05-07T21:01:14.905Z,19.95
2018-05-07T21:03:42.305Z,20.03
2018-05-07T21:06:09.787Z,20.00
2018-05-07T21:08:37.637Z,19.98
2018-05-07T21:11:05.059Z,20.01
2018-05-07T21:13:32.495Z,20.05
2018-05-07T21:15:59.906Z,20.17
2018-05-07T21:18:27.340Z,20.18
2018-05-07T21:20:54.777Z,20.25
2018-05-07T21:23:22.220Z,20.25
2018-05-07T21:25:49.871Z,20.27
2018-05-07T21:28:17.356Z,20.20
2018-05-07T21:30:44.740Z,20.18
2018-05-07T21:33:12.178Z,20.12
2018-05-07T21:35:39.662Z,20.10
2018-05-07T21:38:07.228Z,20.12
2018-05-07T21:40:34.692Z,20.14
2018-05-07T21:43:02.165Z,20.11
2018-05-07T21:45:29.563Z,19.99
2018-05-07T21:47:57.032Z,19.96
2018-05-07T21:50:24.764Z,19.94
2018-05-07T21:52:52.191Z,19.97
2018-05-07T21:55:19.662Z,19.93
2018-05-07T21:57:47.077Z,19.90
2018-05-07T22:00:14.497Z,19.82
2018-05-07T22:02:41.965Z,19.78
2018-05-07T22:05:09.387Z,19.66
2018-05-07T22:07:36.815Z,19.59
2018-05-07T22:10:04.293Z,19.65
2018-05-07T22:12:31.700Z,19.70
2018-05-07T22:14:59.162Z,19.68
2018-05-07T22:17:26.594Z,19.67
2018-05-07T22:19:54.023Z,19.66
2018-05-07T22:22:21.487Z,19.63
2018-05-07T22:24:48.962Z,19.53
2018-05-07T22:27:16.414Z,19.50
2018-05-07T22:29:43.821Z,19.46
2018-05-07T22:32:11.327Z,19.44
2018-05-07T22:34:38.767Z,19.40
2018-05-07T22:37:06.164Z,19.31
2018-05-07T22:39:33.638Z,19.19
2018-05-07T22:42:01.093Z,19.15
2018-05-07T22:44:28.523Z,19.13
2018-05-07T22:46:55.999Z,19.12
2018-05-07T22:49:23.515Z,19.12
2018-05-07T22:51:50.947Z,19.09
2018-05-07T22:54:18.403Z,19.11
2018-05-07T22:56:45.860Z,19.12
2018-05-07T22:59:13.301Z,19.15
2018-05-07T23:01:40.810Z,19.14
2018-05-07T23:04:08.253Z,19.11
2018-05-07T23:06:35.650Z,19.11
2018-05-07T23:09:03.133Z,19.09
2018-05-07T23:11:31.247Z,19.05
2018-05-07T23:13:58.679Z,19.09
2018-05-07T23:16:26.156Z,19.14
2018-05-07T23:18:53.563Z,19.18
2018-05-07T23:21:22.033Z,19.19
2018-05-07T23:23:49.571Z,19.12
2018-05-07T23:26:17.048Z,19.10
2018-05-07T23:28:44.480Z,19.05
2018-05-07T23:31:11.948Z,18.97
2018-05-07T23:33:39.371Z,18.98
2018-05-07T23:36:06.841Z,19.03
2018-05-07T23:38:34.279Z,19.01
2018-05-07T23:41:01.788Z,18.97
2018-05-07T23:43:29.171Z,18.95
2018-05-07T23:45:56.562Z,18.89
2018-05-07T23:48:24.003Z,18.80
2018-05-07T23:50:51.499Z,18.78
2018-05-07T23:53:18.919Z,18.82
2018-05-07T23:55:46.347Z,18.84
2018-05-07T23:58:14.634Z,18.80
